Dades meteomassalio
Diari Summary for Gener 4, 2018 Units:  English    Metric   Both
« Previous Day
Next Day »
Diari Semanal Mensual Anual Personalitzat
  Maxima: Minima: Mijana:
Temperatura: TemperatureC °F 10.6 °F 14.7 °F
Rosada: DewpointC °F 3.6 °F 7.1 °F
Humitat: Humidity % 44 % 61 %
Velocitat del vent: WindSpeedKMH mph 0.0 mph 24.5 mph
Racha vent: WindSpeedGustKMH mph - -
Vent:- - NW
Pressio: PressurehPa in 1020.9 in -
Pluja: 0.0 in    
Historical Graphs
 
 
Tabular Data for Gener 4, 2018
Time Temperature Dew Point Pressure Wind Wind Speed Wind Gust Humidity Rainfall Rate (Hourly) solar Conditions
TemperatureC °F DewpointC °F PressurehPa in Calm     Humidity % HourlyPrecipMM in SolarRadiationWatts/m^2 W/m2 Conditions
00:03 13.9 °F 7.8 °F 1027.7 in WNW 16.7 mph 16.7 mph 67 % 0.0 in 0.0 W/m2 CLR
00:04 13.9 °F 7.8 °F 1027.7 in WNW 16.7 mph 16.7 mph 67 % 0.0 in 0.0 W/m2 CLR
00:08 14.4 °F 8.4 °F 1027.3 in West 16.7 mph 16.7 mph 67 % 0.0 in 0.0 W/m2 CLR
00:11 14.4 °F 8.6 °F 1027.3 in WNW 9.3 mph 9.3 mph 68 % 0.0 in 0.0 W/m2 CLR
00:15 14.4 °F 8.8 °F 1027.3 in WNW 18.5 mph 18.5 mph 69 % 0.0 in 0.0 W/m2 CLR
00:21 13.9 °F 8.3 °F 1027.3 in WNW 18.5 mph 18.5 mph 69 % 0.0 in 0.0 W/m2 CLR
00:26 13.9 °F 8.3 °F 1027.3 in West 19.3 mph 19.3 mph 69 % 0.0 in 0.0 W/m2 CLR
00:27 13.9 °F 8.3 °F 1027.3 in West 18.5 mph 18.5 mph 69 % 0.0 in 0.0 W/m2 CLR
00:32 13.9 °F 8.3 °F 1027.3 in West 18.5 mph 18.5 mph 69 % 0.0 in 0.0 W/m2 CLR
00:33 13.9 °F 8.5 °F 1027.3 in WNW 18.5 mph 18.5 mph 70 % 0.0 in 0.0 W/m2 CLR
00:39 13.9 °F 8.5 °F 1027.3 in West 13.0 mph 13.0 mph 70 % 0.0 in 0.0 W/m2 CLR
00:46 13.9 °F 8.5 °F 1027.3 in WNW 11.1 mph 11.1 mph 70 % 0.0 in 0.0 W/m2 CLR
00:50 13.9 °F 8.5 °F 1027.3 in West 11.1 mph 11.1 mph 70 % 0.0 in 0.0 W/m2 CLR
00:52 13.9 °F 8.5 °F 1027.3 in West 14.8 mph 14.8 mph 70 % 0.0 in 0.0 W/m2 CLR
00:57 13.9 °F 8.5 °F 1027.3 in WNW 18.5 mph 18.5 mph 70 % 0.0 in 0.0 W/m2 CLR
01:00 13.9 °F 8.5 °F 1027.3 in WNW 13.0 mph 13.0 mph 70 % 0.0 in 0.0 W/m2 CLR
01:02 13.9 °F 8.5 °F 1027.3 in NW 18.5 mph 18.5 mph 70 % 0.0 in 0.0 W/m2 CLR
01:09 13.3 °F 8.0 °F 1027.3 in WNW 18.5 mph 18.5 mph 70 % 0.0 in 0.0 W/m2 CLR
01:11 13.3 °F 7.8 °F 1027.3 in WNW 13.0 mph 13.0 mph 69 % 0.0 in 0.0 W/m2 CLR
01:14 13.3 °F 7.8 °F 1027.3 in NW 16.7 mph 16.7 mph 69 % 0.0 in 0.0 W/m2 CLR
01:19 13.3 °F 7.8 °F 1027.3 in NW 17.7 mph 17.7 mph 69 % 0.0 in 0.0 W/m2 CLR
01:25 13.3 °F 7.8 °F 1027.3 in NW 18.5 mph 18.5 mph 69 % 0.0 in 0.0 W/m2 CLR
01:27 13.3 °F 7.8 °F 1027.3 in NNW 16.7 mph 16.7 mph 69 % 0.0 in 0.0 W/m2 CLR
01:30 13.3 °F 7.8 °F 1027.3 in NW 18.5 mph 18.5 mph 69 % 0.0 in 0.0 W/m2 CLR
01:35 13.3 °F 7.8 °F 1027.3 in NNW 16.7 mph 16.7 mph 69 % 0.0 in 0.0 W/m2 CLR
01:40 13.3 °F 7.8 °F 1027.3 in NW 14.8 mph 14.8 mph 69 % 0.0 in 0.0 W/m2 CLR
01:43 13.3 °F 7.8 °F 1027.0 in NW 14.8 mph 14.8 mph 69 % 0.0 in 0.0 W/m2 CLR
01:44 13.3 °F 7.8 °F 1027.0 in NW 16.7 mph 16.7 mph 69 % 0.0 in 0.0 W/m2 CLR
01:49 13.9 °F 8.3 °F 1027.0 in NW 17.7 mph 17.7 mph 69 % 0.0 in 0.0 W/m2 CLR
01:54 13.9 °F 8.3 °F 1027.0 in NW 18.5 mph 18.5 mph 69 % 0.0 in 0.0 W/m2 CLR
01:57 13.3 °F 7.8 °F 1027.0 in NW 14.8 mph 14.8 mph 69 % 0.0 in 0.0 W/m2 CLR
02:00 13.3 °F 7.8 °F 1027.0 in WNW 14.8 mph 14.8 mph 69 % 0.0 in 0.0 W/m2 CLR
02:02 13.3 °F 7.8 °F 1027.0 in WNW 17.7 mph 17.7 mph 69 % 0.0 in 0.0 W/m2 CLR
02:07 13.3 °F 7.8 °F 1027.3 in WNW 11.3 mph 11.3 mph 69 % 0.0 in 0.0 W/m2 CLR
02:08 13.3 °F 7.8 °F 1027.3 in West 11.1 mph   69 % 0.0 in 0.0 W/m2 CLR
02:12 12.8 °F 7.2 °F 1027.3 in WSW 3.7 mph 3.7 mph 69 % 0.0 in 0.0 W/m2 CLR
02:16 12.2 °F 6.7 °F 1027.3 in Calm     69 % 0.0 in 0.0 W/m2 CLR
02:17 12.2 °F 6.9 °F 1027.3 in Calm     70 % 0.0 in 0.0 W/m2 CLR
02:22 11.7 °F 6.6 °F 1027.0 in West 9.3 mph 9.3 mph 71 % 0.0 in 0.0 W/m2 CLR
02:25 11.7 °F 6.6 °F 1027.0 in WNW 9.3 mph 9.3 mph 71 % 0.0 in 0.0 W/m2 CLR
02:29 11.1 °F 6.3 °F 1027.0 in West 13.0 mph 13.0 mph 72 % 0.0 in 0.0 W/m2 CLR
02:34 10.6 °F 5.7 °F 1027.0 in WNW 13.0 mph 13.0 mph 72 % 0.0 in 0.0 W/m2 CLR
02:39 11.1 °F 6.3 °F 1027.0 in NW 16.7 mph 16.7 mph 72 % 0.0 in 0.0 W/m2 CLR
02:40 11.1 °F 6.3 °F 1027.0 in NW 14.8 mph 14.8 mph 72 % 0.0 in 0.0 W/m2 CLR
02:45 11.1 °F 6.3 °F 1027.0 in WNW 14.8 mph 14.8 mph 72 % 0.0 in 0.0 W/m2 CLR
02:46 11.1 °F 6.3 °F 1027.0 in WNW 14.8 mph 14.8 mph 72 % 0.0 in 0.0 W/m2 CLR
02:51 11.1 °F 6.3 °F 1027.0 in WNW 16.7 mph 16.7 mph 72 % 0.0 in 0.0 W/m2 CLR
02:57 11.1 °F 6.3 °F 1027.0 in West 16.1 mph 16.1 mph 72 % 0.0 in 0.0 W/m2 CLR
03:00 11.1 °F 6.3 °F 1027.0 in WNW 16.7 mph 16.7 mph 72 % 0.0 in 0.0 W/m2 CLR
03:02 11.1 °F 6.3 °F 1027.0 in West 18.5 mph 18.5 mph 72 % 0.0 in 0.0 W/m2 CLR
03:07 11.7 °F 6.8 °F 1027.0 in WNW 14.8 mph 14.8 mph 72 % 0.0 in 0.0 W/m2 CLR
03:12 12.8 °F 8.1 °F 1027.0 in West 18.5 mph 18.5 mph 73 % 0.0 in 0.0 W/m2 CLR
03:18 13.3 °F 8.6 °F 1027.0 in West 16.1 mph 16.1 mph 73 % 0.0 in 0.0 W/m2 CLR
03:23 12.8 °F 8.1 °F 1027.0 in WNW 16.7 mph 16.7 mph 73 % 0.0 in 0.0 W/m2 CLR
03:24 12.8 °F 8.1 °F 1027.0 in West 16.7 mph 16.7 mph 73 % 0.0 in 0.0 W/m2 CLR
03:29 12.8 °F 8.1 °F 1027.0 in WNW 18.5 mph 18.5 mph 73 % 0.0 in 0.0 W/m2 CLR
03:32 12.8 °F 8.1 °F 1027.0 in WNW 18.5 mph 18.5 mph 73 % 0.0 in 0.0 W/m2 CLR
03:35 12.2 °F 7.5 °F 1027.0 in WNW 14.8 mph 14.8 mph 73 % 0.0 in 0.0 W/m2 CLR
03:40 12.2 °F 7.3 °F 1027.0 in WNW 18.5 mph 18.5 mph 72 % 0.0 in 0.0 W/m2 CLR
03:45 12.2 °F 7.3 °F 1027.0 in WNW 13.0 mph 13.0 mph 72 % 0.0 in 0.0 W/m2 CLR
03:46 12.2 °F 7.3 °F 1027.0 in WNW 16.1 mph 16.1 mph 72 % 0.0 in 0.0 W/m2 CLR
03:51 12.2 °F 7.1 °F 1026.6 in NW 16.7 mph 16.7 mph 71 % 0.0 in 0.0 W/m2 CLR
03:52 12.2 °F 7.1 °F 1026.6 in WNW 18.5 mph 18.5 mph 71 % 0.0 in 0.0 W/m2 CLR
03:56 12.2 °F 7.1 °F 1026.6 in NW 16.7 mph 16.7 mph 71 % 0.0 in 0.0 W/m2 CLR
03:57 12.2 °F 7.1 °F 1026.6 in WNW 18.5 mph 18.5 mph 71 % 0.0 in 0.0 W/m2 CLR
04:02 12.2 °F 7.1 °F 1026.6 in NW 16.7 mph 16.7 mph 71 % 0.0 in 0.0 W/m2 CLR
04:03 12.2 °F 7.1 °F 1026.6 in WNW 16.7 mph 16.7 mph 71 % 0.0 in 0.0 W/m2 CLR
04:09 12.2 °F 7.1 °F 1026.6 in NW 18.5 mph 18.5 mph 71 % 0.0 in 0.0 W/m2 CLR
04:12 12.2 °F 7.1 °F 1026.6 in NW 13.0 mph 13.0 mph 71 % 0.0 in 0.0 W/m2 CLR
04:15 12.2 °F 7.1 °F 1026.3 in WNW 14.8 mph 14.8 mph 71 % 0.0 in 0.0 W/m2 CLR
04:20 11.7 °F 6.6 °F 1026.3 in WNW 16.7 mph 16.7 mph 71 % 0.0 in 0.0 W/m2 CLR
04:21 11.7 °F 6.6 °F 1026.3 in WNW 18.5 mph 18.5 mph 71 % 0.0 in 0.0 W/m2 CLR
04:26 11.1 °F 6.3 °F 1026.3 in West 13.0 mph 13.0 mph 72 % 0.0 in 0.0 W/m2 CLR
04:31 11.1 °F 6.3 °F 1026.3 in WNW 18.5 mph 18.5 mph 72 % 0.0 in 0.0 W/m2 CLR
04:32 11.1 °F 6.4 °F 1026.3 in WNW 16.7 mph 16.7 mph 73 % 0.0 in 0.0 W/m2 CLR
04:37 11.1 °F 6.4 °F 1026.3 in WNW 18.5 mph 18.5 mph 73 % 0.0 in 0.0 W/m2 CLR
04:39 11.1 °F 6.4 °F 1026.3 in WNW 18.5 mph 18.5 mph 73 % 0.0 in 0.0 W/m2 CLR
04:43 11.1 °F 6.4 °F 1026.3 in WNW 20.4 mph 20.4 mph 73 % 0.0 in 0.0 W/m2 CLR
04:45 11.7 °F 7.0 °F 1026.3 in WNW 19.3 mph 19.3 mph 73 % 0.0 in 0.0 W/m2 CLR
04:48 11.7 °F 7.0 °F 1026.3 in WNW 18.5 mph 18.5 mph 73 % 0.0 in 0.0 W/m2 CLR
04:53 12.2 °F 7.5 °F 1026.3 in NW 18.5 mph 18.5 mph 73 % 0.0 in 0.0 W/m2 CLR
04:54 12.2 °F 7.5 °F 1026.3 in NW 16.7 mph 16.7 mph 73 % 0.0 in 0.0 W/m2 CLR
04:59 12.2 °F 7.3 °F 1026.3 in WNW 16.1 mph 16.1 mph 72 % 0.0 in 0.0 W/m2 CLR
05:00 12.2 °F 7.3 °F 1026.3 in NW 16.7 mph 16.7 mph 72 % 0.0 in 0.0 W/m2 CLR
05:05 11.7 °F 7.0 °F 1026.3 in NW 16.7 mph 16.7 mph 73 % 0.0 in 0.0 W/m2 CLR
05:10 11.7 °F 6.8 °F 1026.3 in NW 22.2 mph 22.2 mph 72 % 0.0 in 0.0 W/m2 CLR
05:14 11.7 °F 6.8 °F 1026.3 in NW 16.7 mph 16.7 mph 72 % 0.0 in 0.0 W/m2 CLR
05:15 11.7 °F 6.8 °F 1026.0 in NW 18.5 mph 18.5 mph 72 % 0.0 in 0.0 W/m2 CLR
05:16 12.2 °F 7.3 °F 1026.3 in NW 16.7 mph 16.7 mph 72 % 0.0 in 0.0 W/m2 CLR
05:17 12.2 °F 7.3 °F 1026.3 in NW 16.7 mph 16.7 mph 72 % 0.0 in 0.0 W/m2 CLR
05:20 12.2 °F 7.3 °F 1026.0 in NW 18.5 mph 18.5 mph 72 % 0.0 in 0.0 W/m2 CLR
05:24 12.2 °F 7.3 °F 1026.0 in NW 14.8 mph 14.8 mph 72 % 0.0 in 0.0 W/m2 CLR
05:28 12.2 °F 7.3 °F 1026.0 in WNW 14.8 mph 14.8 mph 72 % 0.0 in 0.0 W/m2 CLR
05:32 11.7 °F 6.8 °F 1026.0 in WNW 13.0 mph 13.0 mph 72 % 0.0 in 0.0 W/m2 CLR
05:36 11.7 °F 7.0 °F 1026.0 in NW 18.5 mph 18.5 mph 73 % 0.0 in 0.0 W/m2 CLR
05:40 11.7 °F 7.0 °F 1026.0 in WNW 13.0 mph 13.0 mph 73 % 0.0 in 0.0 W/m2 CLR
05:42 11.1 °F 6.4 °F 1026.0 in NW 14.8 mph 14.8 mph 73 % 0.0 in 0.0 W/m2 CLR
05:43 11.1 °F 6.4 °F 1026.0 in NW 14.8 mph 14.8 mph 73 % 0.0 in 0.0 W/m2 CLR
05:47 11.1 °F 6.4 °F 1025.6 in NW 16.7 mph 16.7 mph 73 % 0.0 in 0.0 W/m2 CLR
05:48 11.1 °F 6.4 °F 1026.0 in NW 25.7 mph 25.7 mph 73 % 0.0 in 0.0 W/m2 CLR
05:50 11.1 °F 6.4 °F 1026.0 in NW 24.1 mph 24.1 mph 73 % 0.0 in 0.0 W/m2 CLR
05:55 11.1 °F 6.3 °F 1025.6 in NW 16.7 mph 16.7 mph 72 % 0.0 in 0.0 W/m2 CLR
06:02 11.1 °F 6.3 °F 1025.6 in NNW 18.5 mph 18.5 mph 72 % 0.0 in 0.0 W/m2 CLR
06:03 11.1 °F 6.3 °F 1025.6 in NW 18.5 mph 18.5 mph 72 % 0.0 in 0.0 W/m2 CLR
06:08 11.1 °F 6.4 °F 1025.6 in NW 18.5 mph 18.5 mph 73 % 0.0 in 0.0 W/m2 CLR
06:13 11.1 °F 6.4 °F 1025.6 in NW 18.5 mph 18.5 mph 73 % 0.0 in 0.0 W/m2 CLR
06:18 11.1 °F 6.4 °F 1025.6 in NW 18.5 mph 18.5 mph 73 % 0.0 in 0.0 W/m2 CLR
06:23 11.1 °F 6.4 °F 1025.6 in NW 16.7 mph 16.7 mph 73 % 0.0 in 0.0 W/m2 CLR
06:25 11.7 °F 6.8 °F 1025.6 in NW 16.7 mph 16.7 mph 72 % 0.0 in 0.0 W/m2 CLR
06:29 11.7 °F 7.0 °F 1025.6 in NW 18.5 mph 18.5 mph 73 % 0.0 in 0.0 W/m2 CLR
06:30 11.7 °F 6.8 °F 1025.6 in WNW 18.5 mph 18.5 mph 72 % 0.0 in 0.0 W/m2 CLR
06:35 11.7 °F 6.8 °F 1025.6 in NNW 14.8 mph 14.8 mph 72 % 0.0 in 0.0 W/m2 CLR
06:37 11.7 °F 7.0 °F 1025.6 in NW 14.5 mph 14.5 mph 73 % 0.0 in 0.0 W/m2 CLR
06:41 11.7 °F 7.0 °F 1025.6 in NW 18.5 mph 18.5 mph 73 % 0.0 in 0.0 W/m2 CLR
06:43 11.7 °F 7.0 °F 1025.6 in NW 18.5 mph 18.5 mph 73 % 0.0 in 0.0 W/m2 CLR
06:48 11.7 °F 7.0 °F 1025.6 in NW 20.4 mph 20.4 mph 73 % 0.0 in 0.0 W/m2 CLR
06:53 11.7 °F 7.0 °F 1025.6 in NW 18.5 mph 18.5 mph 73 % 0.0 in 0.0 W/m2 CLR
06:54 11.7 °F 7.0 °F 1025.6 in NW 18.5 mph 18.5 mph 73 % 0.0 in 0.0 W/m2 CLR
06:58 12.2 °F 7.5 °F 1025.6 in NW 18.5 mph 18.5 mph 73 % 0.0 in 0.0 W/m2 CLR
06:59 12.2 °F 7.5 °F 1025.6 in NW 18.5 mph 18.5 mph 73 % 0.0 in 0.0 W/m2 CLR
07:04 12.2 °F 7.7 °F 1025.6 in NW 20.4 mph 20.4 mph 74 % 0.0 in 0.0 W/m2 CLR
07:05 12.2 °F 7.7 °F 1025.6 in NNW 22.2 mph 22.2 mph 74 % 0.0 in 0.0 W/m2 CLR
07:08 12.2 °F 7.7 °F 1025.6 in NNW 20.4 mph 20.4 mph 74 % 0.0 in 0.0 W/m2 CLR
07:10 12.8 °F 8.1 °F 1025.6 in NW 14.8 mph 14.8 mph 73 % 0.0 in 0.0 W/m2 CLR
07:15 12.8 °F 8.3 °F 1025.6 in NNW 16.7 mph 16.7 mph 74 % 0.0 in 0.0 W/m2 CLR
07:16 12.8 °F 8.3 °F 1025.6 in NW 16.7 mph 16.7 mph 74 % 0.0 in 0.0 W/m2 CLR
07:17 12.8 °F 8.4 °F 1025.6 in NNW 16.7 mph 16.7 mph 75 % 0.0 in 0.0 W/m2 CLR
07:22 12.8 °F 8.4 °F 1025.6 in NNW 13.0 mph 13.0 mph 75 % 0.0 in 0.0 W/m2 CLR
07:24 12.8 °F 8.4 °F 1025.6 in NW 16.7 mph 16.7 mph 75 % 0.0 in 0.0 W/m2 CLR
07:28 12.2 °F 8.1 °F 1025.6 in NW 18.5 mph 18.5 mph 76 % 0.0 in 0.0 W/m2 CLR
07:32 12.2 °F 8.1 °F 1025.6 in NW 20.4 mph 20.4 mph 76 % 0.0 in 0.0 W/m2 CLR
07:34 12.2 °F 7.9 °F 1025.6 in NW 14.8 mph 14.8 mph 75 % 0.0 in 0.0 W/m2 CLR
07:37 12.2 °F 7.9 °F 1025.3 in NW 16.7 mph 16.7 mph 75 % 0.0 in 0.0 W/m2 CLR
07:39 12.2 °F 7.7 °F 1025.3 in NW 14.8 mph 14.8 mph 74 % 0.0 in 0.0 W/m2 CLR
07:44 12.2 °F 7.9 °F 1025.3 in NW 13.0 mph 13.0 mph 75 % 0.0 in 0.0 W/m2 CLR
07:46 12.2 °F 7.9 °F 1025.6 in NW 13.0 mph 13.0 mph 75 % 0.0 in 0.0 W/m2 CLR
07:48 12.2 °F 7.9 °F 1025.3 in NNW 13.0 mph 13.0 mph 75 % 0.0 in 0.0 W/m2 CLR
07:50 12.2 °F 7.9 °F 1025.3 in NW 14.8 mph 14.8 mph 75 % 0.0 in 0.0 W/m2 CLR
07:53 12.2 °F 7.9 °F 1025.6 in NW 16.7 mph 16.7 mph 75 % 0.0 in 0.0 W/m2 CLR
07:56 12.2 °F 8.1 °F 1025.6 in NW 14.8 mph 14.8 mph 76 % 0.0 in 0.0 W/m2 CLR
07:59 11.7 °F 7.6 °F 1025.6 in NNW 14.8 mph 14.8 mph 76 % 0.0 in 0.0 W/m2 CLR
08:03 12.2 °F 8.1 °F 1025.6 in NNW 14.8 mph 14.8 mph 76 % 0.0 in 0.0 W/m2 CLR
08:08 12.2 °F 7.9 °F 1025.6 in NW 16.7 mph 16.7 mph 75 % 0.0 in 0.0 W/m2 CLR
08:09 12.2 °F 7.9 °F 1025.6 in NNW 16.7 mph 16.7 mph 75 % 0.0 in 0.0 W/m2 CLR
08:10 12.2 °F 7.9 °F 1025.6 in NW 14.8 mph 14.8 mph 75 % 0.0 in 0.0 W/m2 CLR
08:13 12.2 °F 7.9 °F 1025.3 in NNW 16.7 mph 16.7 mph 75 % 0.0 in 0.0 W/m2 CLR
08:14 12.2 °F 7.9 °F 1025.3 in NNW 12.9 mph 12.9 mph 75 % 0.0 in 0.0 W/m2 CLR
08:17 12.2 °F 7.9 °F 1025.3 in NW 14.8 mph 14.8 mph 75 % 0.0 in 0.0 W/m2 OVC
08:19 12.2 °F 7.9 °F 1025.3 in NNW 16.7 mph 16.7 mph 75 % 0.0 in 0.0 W/m2 OVC
08:20 12.2 °F 7.7 °F 1025.3 in NNW 16.7 mph 16.7 mph 74 % 0.0 in 0.0 W/m2 OVC
08:24 12.2 °F 7.7 °F 1025.3 in NNW 20.4 mph 20.4 mph 74 % 0.0 in 0.0 W/m2 OVC
08:27 12.2 °F 7.7 °F 1025.3 in NW 17.7 mph 17.7 mph 74 % 0.0 in 5.0 W/m2 OVC
08:31 12.2 °F 7.5 °F 1025.3 in NW 20.4 mph 20.4 mph 73 % 0.0 in 7.0 W/m2 BKN
08:33 12.8 °F 8.1 °F 1025.3 in NW 24.1 mph 24.1 mph 73 % 0.0 in 9.0 W/m2 BKN
08:38 12.8 °F 7.8 °F 1025.3 in NNW 18.5 mph 18.5 mph 72 % 0.0 in 12.0 W/m2 BKN
08:39 12.8 °F 7.8 °F 1025.3 in NNW 22.2 mph 22.2 mph 72 % 0.0 in 12.0 W/m2 BKN
08:40 12.8 °F 7.8 °F 1025.6 in NW 22.2 mph 22.2 mph 72 % 0.0 in 14.0 W/m2 BKN
08:45 13.3 °F 8.2 °F 1025.3 in NW 20.4 mph 20.4 mph 71 % 0.0 in 16.0 W/m2 BKN
08:46 13.3 °F 8.2 °F 1025.3 in NNW 22.5 mph 22.5 mph 71 % 0.0 in 18.0 W/m2 BKN
08:48 13.3 °F 8.2 °F 1025.6 in NNW 25.9 mph 25.9 mph 71 % 0.0 in 18.0 W/m2 BKN
08:51 13.3 °F 8.2 °F 1025.3 in NNW 18.5 mph 18.8 mph 71 % 0.0 in 19.0 W/m2 BKN
08:53 13.3 °F 8.2 °F 1025.3 in NNW 29.6 mph 29.6 mph 71 % 0.0 in 21.0 W/m2 BKN
08:56 13.3 °F 8.2 °F 1025.6 in NNW 18.5 mph 18.5 mph 71 % 0.0 in 25.0 W/m2 BKN
09:01 13.3 °F 8.0 °F 1025.6 in NNW 27.8 mph 27.8 mph 70 % 0.0 in 32.0 W/m2 BKN
09:02 13.9 °F 8.7 °F 1025.6 in NNW 27.8 mph 27.8 mph 71 % 0.0 in 35.0 W/m2 BKN
09:05 13.9 °F 8.5 °F 1025.6 in North 29.6 mph 29.6 mph 70 % 0.0 in 40.0 W/m2 BKN
09:07 13.9 °F 8.5 °F 1025.6 in NNW 37.0 mph 37.0 mph 70 % 0.0 in 44.0 W/m2 BKN
09:12 13.9 °F 8.3 °F 1026.0 in North 29.6 mph 29.6 mph 69 % 0.0 in 58.0 W/m2 SCT
09:14 14.4 °F 8.8 °F 1025.6 in NNW 25.9 mph 25.9 mph 69 % 0.0 in 60.0 W/m2 SCT
09:18 14.4 °F 8.6 °F 1026.0 in NW 33.3 mph 33.3 mph 68 % 0.0 in 70.0 W/m2 FEW
09:19 14.4 °F 8.6 °F 1025.6 in North 33.3 mph 33.3 mph 68 % 0.0 in 70.0 W/m2 FEW
09:24 14.4 °F 8.6 °F 1026.0 in North 31.5 mph 31.5 mph 68 % 0.0 in 84.0 W/m2 FEW
09:27 14.4 °F 8.4 °F 1025.6 in NNW 31.5 mph 31.5 mph 67 % 0.0 in 90.0 W/m2 FEW
09:29 14.4 °F 8.4 °F 1025.6 in NNW 24.1 mph 24.1 mph 67 % 0.0 in 95.0 W/m2 FEW
09:34 15.0 °F 8.9 °F 1025.6 in NW 31.5 mph 31.5 mph 67 % 0.0 in 109.0 W/m2 CLR
09:38 14.4 °F 8.4 °F 1025.6 in North 27.8 mph 27.8 mph 67 % 0.0 in 130.0 W/m2 CLR
09:43 15.0 °F 8.9 °F 1025.6 in NW 31.5 mph 31.5 mph 67 % 0.0 in 142.0 W/m2 CLR
09:46 15.0 °F 8.9 °F 1025.6 in NNW 27.8 mph 27.8 mph 67 % 0.0 in 151.0 W/m2 CLR
09:48 15.0 °F 8.7 °F 1025.6 in NNW 38.9 mph 38.9 mph 66 % 0.0 in 158.0 W/m2 CLR
09:52 15.0 °F 8.7 °F 1025.6 in NNW 35.2 mph 35.2 mph 66 % 0.0 in 165.0 W/m2 CLR
09:54 15.0 °F 8.7 °F 1025.6 in NNW 31.5 mph 31.5 mph 66 % 0.0 in 174.0 W/m2 CLR
09:58 15.0 °F 8.7 °F 1025.6 in NNW 31.5 mph 31.5 mph 66 % 0.0 in 178.0 W/m2 CLR
10:01 15.0 °F 8.4 °F 1025.6 in NNW 31.5 mph 31.5 mph 65 % 0.0 in 181.0 W/m2 CLR
10:05 15.6 °F 9.0 °F 1025.6 in NW 31.5 mph 31.5 mph 65 % 0.0 in 163.0 W/m2 CLR
10:10 15.6 °F 9.0 °F 1025.6 in NNW 35.2 mph 35.2 mph 65 % 0.0 in 148.0 W/m2 CLR
10:11 15.6 °F 9.0 °F 1025.6 in NW 35.4 mph 35.4 mph 65 % 0.0 in 163.0 W/m2 CLR
10:13 15.6 °F 9.0 °F 1025.3 in NNW 37.0 mph 37.0 mph 65 % 0.0 in 213.0 W/m2 CLR
10:18 15.6 °F 8.8 °F 1025.3 in NNW 38.6 mph 38.6 mph 64 % 0.0 in 153.0 W/m2 CLR
10:20 15.6 °F 8.8 °F 1025.3 in NW 38.9 mph 38.9 mph 64 % 0.0 in 146.0 W/m2 CLR
10:25 16.1 °F 9.1 °F 1025.3 in NNW 45.1 mph 45.1 mph 63 % 0.0 in 234.0 W/m2 CLR
10:30 16.1 °F 9.1 °F 1025.3 in NW 42.6 mph 42.6 mph 63 % 0.0 in 250.0 W/m2 CLR
10:31 16.1 °F 9.1 °F 1025.3 in NW 35.4 mph 35.4 mph 63 % 0.0 in 253.0 W/m2 CLR
10:36 16.1 °F 8.8 °F 1025.3 in NW 38.9 mph 38.9 mph 62 % 0.0 in 265.0 W/m2 CLR
10:37 16.1 °F 8.8 °F 1025.3 in NW 33.3 mph 33.3 mph 62 % 0.0 in 269.0 W/m2 CLR
10:42 16.1 °F 8.6 °F 1025.3 in NW 37.0 mph 37.0 mph 61 % 0.0 in 281.0 W/m2 CLR
10:44 16.1 °F 8.6 °F 1025.3 in NW 33.3 mph 33.3 mph 61 % 0.0 in 285.0 W/m2 CLR
10:45 16.7 °F 9.1 °F 1025.3 in NW 35.2 mph 35.2 mph 61 % 0.0 in 288.0 W/m2 CLR
10:49 16.7 °F 8.9 °F 1025.3 in NW 27.8 mph 27.8 mph 60 % 0.0 in 294.0 W/m2 CLR
10:54 16.7 °F 8.6 °F 1025.3 in NNW 40.7 mph 40.7 mph 59 % 0.0 in 306.0 W/m2 CLR
10:56 16.7 °F 8.6 °F 1025.3 in NNW 27.8 mph 27.8 mph 59 % 0.0 in 309.0 W/m2 CLR
10:57 16.7 °F 8.6 °F 1025.3 in NNW 27.8 mph 27.8 mph 59 % 0.0 in 309.0 W/m2 CLR
10:58 17.2 °F 8.9 °F 1025.3 in NNW 42.6 mph 42.6 mph 58 % 0.0 in 315.0 W/m2 CLR
11:02 17.2 °F 8.9 °F 1025.3 in NW 40.7 mph 40.7 mph 58 % 0.0 in 323.0 W/m2 CLR
11:05 17.2 °F 8.9 °F 1025.3 in NNW 29.6 mph 29.6 mph 58 % 0.0 in 327.0 W/m2 CLR
11:07 17.2 °F 8.6 °F 1025.3 in NW 44.4 mph 44.4 mph 57 % 0.0 in 332.0 W/m2 CLR
11:12 17.2 °F 8.6 °F 1025.3 in NNW 37.0 mph 37.0 mph 57 % 0.0 in 339.0 W/m2 CLR
11:17 17.8 °F 8.9 °F 1025.3 in NW 44.4 mph 44.4 mph 56 % 0.0 in 339.0 W/m2 CLR
11:20 17.8 °F 8.9 °F 1025.3 in NNW 38.9 mph 38.9 mph 56 % 0.0 in 345.0 W/m2 CLR
11:25 17.8 °F 8.9 °F 1024.9 in NW 38.9 mph 38.9 mph 56 % 0.0 in 352.0 W/m2 CLR
11:26 17.8 °F 8.9 °F 1025.3 in NW 50.0 mph 50.0 mph 56 % 0.0 in 355.0 W/m2 CLR
11:31 17.8 °F 8.6 °F 1025.3 in NW 35.2 mph 35.2 mph 55 % 0.0 in 364.0 W/m2 CLR
11:35 17.8 °F 8.6 °F 1024.9 in NW 27.4 mph 27.4 mph 55 % 0.0 in 371.0 W/m2 CLR
11:39 17.8 °F 8.1 °F 1024.9 in NNW 40.7 mph 40.7 mph 53 % 0.0 in 373.0 W/m2 CLR
11:41 18.3 °F 8.6 °F 1024.9 in NW 33.3 mph 33.3 mph 53 % 0.0 in 376.0 W/m2 CLR
11:44 18.3 °F 8.6 °F 1024.9 in NW 40.7 mph 40.7 mph 53 % 0.0 in 380.0 W/m2 CLR
11:46 18.3 °F 8.6 °F 1024.9 in NW 29.6 mph 29.6 mph 53 % 0.0 in 383.0 W/m2 CLR
11:49 18.3 °F 8.3 °F 1024.9 in NW 33.3 mph 33.3 mph 52 % 0.0 in 385.0 W/m2 CLR
11:50 18.3 °F 8.3 °F 1024.9 in NW 33.3 mph 33.3 mph 52 % 0.0 in 387.0 W/m2 CLR
11:55 18.3 °F 8.3 °F 1024.9 in NW 42.6 mph 42.6 mph 52 % 0.0 in 390.0 W/m2 CLR
11:56 18.3 °F 8.3 °F 1024.6 in NW 38.9 mph 38.9 mph 52 % 0.0 in 396.0 W/m2 CLR
11:59 18.3 °F 8.3 °F 1024.6 in NNW 33.3 mph 33.3 mph 52 % 0.0 in 397.0 W/m2 CLR
12:04 18.9 °F 8.5 °F 1024.6 in North 31.5 mph 31.5 mph 51 % 0.0 in 406.0 W/m2 CLR
12:08 18.9 °F 8.2 °F 1024.6 in North 38.9 mph 38.9 mph 50 % 0.0 in 410.0 W/m2 CLR
12:11 18.9 °F 8.2 °F 1024.6 in NNW 46.3 mph 46.3 mph 50 % 0.0 in 413.0 W/m2 CLR
12:13 18.9 °F 8.2 °F 1024.6 in NW 53.7 mph 53.7 mph 50 % 0.0 in 418.0 W/m2 CLR
12:18 18.9 °F 8.2 °F 1024.6 in NW 48.3 mph 48.3 mph 50 % 0.0 in 417.0 W/m2 CLR
12:19 18.9 °F 8.2 °F 1024.6 in North 46.3 mph 46.3 mph 50 % 0.0 in 417.0 W/m2 CLR
12:24 18.3 °F 7.7 °F 1024.6 in North 42.6 mph 42.6 mph 50 % 0.0 in 424.0 W/m2 CLR
12:26 18.9 °F 8.2 °F 1024.3 in NW 31.5 mph 31.5 mph 50 % 0.0 in 425.0 W/m2 CLR
12:29 18.9 °F 8.2 °F 1024.3 in NW 46.3 mph 46.3 mph 50 % 0.0 in 429.0 W/m2 CLR
12:31 18.9 °F 8.2 °F 1024.3 in NNW 42.6 mph 42.6 mph 50 % 0.0 in 429.0 W/m2 CLR
12:36 18.9 °F 8.2 °F 1024.3 in NNW 53.7 mph 53.7 mph 50 % 0.0 in 429.0 W/m2 CLR
12:40 18.9 °F 8.2 °F 1024.3 in NNW 40.7 mph 40.7 mph 50 % 0.0 in 434.0 W/m2 CLR
12:45 18.9 °F 8.2 °F 1023.9 in NNW 48.1 mph 48.1 mph 50 % 0.0 in 434.0 W/m2 CLR
12:47 18.9 °F 8.2 °F 1023.9 in NNW 37.0 mph 37.0 mph 50 % 0.0 in 436.0 W/m2 CLR
12:49 18.9 °F 7.9 °F 1023.9 in NNW 48.1 mph 48.1 mph 49 % 0.0 in 434.0 W/m2 CLR
12:54 18.9 °F 8.2 °F 1023.9 in NW 38.9 mph 38.9 mph 50 % 0.0 in 434.0 W/m2 CLR
12:56 18.9 °F 8.2 °F 1023.9 in North 43.4 mph 43.4 mph 50 % 0.0 in 434.0 W/m2 CLR
13:01 18.9 °F 8.2 °F 1023.9 in North 45.1 mph 45.1 mph 50 % 0.0 in 436.0 W/m2 CLR
13:03 18.9 °F 7.9 °F 1023.9 in NNW 48.1 mph 48.1 mph 49 % 0.0 in 434.0 W/m2 CLR
13:08 18.9 °F 7.9 °F 1023.6 in NNW 45.1 mph 45.1 mph 49 % 0.0 in 436.0 W/m2 CLR
13:13 18.9 °F 7.9 °F 1023.6 in NW 41.8 mph 41.8 mph 49 % 0.0 in 434.0 W/m2 CLR
13:14 18.9 °F 7.9 °F 1023.6 in NNW 40.2 mph 40.2 mph 49 % 0.0 in 434.0 W/m2 CLR
13:15 18.9 °F 7.9 °F 1023.6 in NNW 51.8 mph 51.8 mph 49 % 0.0 in 436.0 W/m2 CLR
13:16 18.9 °F 7.9 °F 1023.6 in NNW 48.1 mph 48.1 mph 49 % 0.0 in 436.0 W/m2 CLR
13:21 18.9 °F 7.9 °F 1023.6 in NNW 50.0 mph 50.0 mph 49 % 0.0 in 432.0 W/m2 CLR
13:22 18.9 °F 7.9 °F 1023.2 in NNW 50.0 mph 50.0 mph 49 % 0.0 in 425.0 W/m2 CLR
13:25 18.9 °F 7.9 °F 1023.2 in NNW 51.8 mph 51.8 mph 49 % 0.0 in 418.0 W/m2 CLR
13:28 18.9 °F 7.6 °F 1023.2 in NNW 53.7 mph 53.7 mph 48 % 0.0 in 424.0 W/m2 CLR
13:33 19.4 °F 8.2 °F 1023.2 in NNW 48.1 mph 48.1 mph 48 % 0.0 in 422.0 W/m2 CLR
13:34 19.4 °F 8.2 °F 1023.2 in NNW 51.8 mph 51.8 mph 48 % 0.0 in 425.0 W/m2 CLR
13:37 19.4 °F 8.2 °F 1023.2 in NNW 50.0 mph 50.0 mph 48 % 0.0 in 420.0 W/m2 CLR
13:38 19.4 °F 8.2 °F 1022.9 in WNW 50.0 mph 50.0 mph 48 % 0.0 in 418.0 W/m2 CLR
13:42 19.4 °F 8.2 °F 1023.2 in NNW 42.6 mph 42.6 mph 48 % 0.0 in 422.0 W/m2 CLR
13:47 19.4 °F 8.2 °F 1022.9 in WNW 51.8 mph 51.8 mph 48 % 0.0 in 417.0 W/m2 CLR
13:48 19.4 °F 8.2 °F 1023.2 in NW 37.0 mph 37.0 mph 48 % 0.0 in 420.0 W/m2 CLR
13:52 18.9 °F 7.6 °F 1023.2 in NNW 42.6 mph 42.6 mph 48 % 0.0 in 418.0 W/m2 CLR
13:55 19.4 °F 8.2 °F 1022.9 in NNW 38.9 mph 38.9 mph 48 % 0.0 in 418.0 W/m2 CLR
13:58 19.4 °F 7.8 °F 1022.9 in NNW 40.7 mph 40.7 mph 47 % 0.0 in 420.0 W/m2 CLR
13:59 19.4 °F 7.8 °F 1022.9 in NNW 40.7 mph 40.7 mph 47 % 0.0 in 420.0 W/m2 CLR
14:04 19.4 °F 7.8 °F 1022.9 in North 46.3 mph 46.3 mph 47 % 0.0 in 417.0 W/m2 CLR
14:09 19.4 °F 7.5 °F 1022.6 in NNW 46.3 mph 46.3 mph 46 % 0.0 in 403.0 W/m2 CLR
14:13 19.4 °F 7.5 °F 1022.6 in North 33.3 mph 33.3 mph 46 % 0.0 in 397.0 W/m2 CLR
14:16 19.4 °F 7.5 °F 1022.6 in NNW 33.3 mph 33.3 mph 46 % 0.0 in 396.0 W/m2 CLR
14:20 19.4 °F 7.5 °F 1022.6 in NW 35.2 mph 35.2 mph 46 % 0.0 in 383.0 W/m2 CLR
14:23 19.4 °F 7.5 °F 1022.6 in NW 20.9 mph 20.9 mph 46 % 0.0 in 388.0 W/m2 CLR
14:27 20.0 °F 8.0 °F 1022.6 in NW 40.7 mph 40.7 mph 46 % 0.0 in 385.0 W/m2 CLR
14:28 20.0 °F 7.7 °F 1022.6 in NNW 37.0 mph 37.0 mph 45 % 0.0 in 385.0 W/m2 CLR
14:33 19.4 °F 7.5 °F 1022.6 in NNW 35.2 mph 35.2 mph 46 % 0.0 in 374.0 W/m2 CLR
14:35 19.4 °F 7.5 °F 1022.2 in NNW 32.2 mph 32.2 mph 46 % 0.0 in 371.0 W/m2 CLR
14:40 19.4 °F 7.2 °F 1022.6 in North 53.7 mph 53.7 mph 45 % 0.0 in 364.0 W/m2 CLR
14:43 20.0 °F 7.7 °F 1022.2 in North 43.4 mph 43.4 mph 45 % 0.0 in 362.0 W/m2 CLR
14:45 20.0 °F 7.4 °F 1022.2 in NW 46.3 mph 46.3 mph 44 % 0.0 in 360.0 W/m2 CLR
14:49 20.0 °F 7.7 °F 1022.2 in NNW 44.4 mph 44.4 mph 45 % 0.0 in 357.0 W/m2 CLR
14:54 19.4 °F 6.9 °F 1022.2 in North 31.5 mph 31.5 mph 44 % 0.0 in 350.0 W/m2 CLR
14:59 19.4 °F 7.2 °F 1022.2 in NNW 35.2 mph 35.2 mph 45 % 0.0 in 339.0 W/m2 CLR
15:04 20.0 °F 7.4 °F 1022.2 in North 37.0 mph 37.0 mph 44 % 0.0 in 332.0 W/m2 CLR
15:06 20.0 °F 7.4 °F 1022.2 in North 48.3 mph 48.3 mph 44 % 0.0 in 332.0 W/m2 CLR
15:09 20.0 °F 7.4 °F 1022.2 in NNW 42.6 mph 42.6 mph 44 % 0.0 in 327.0 W/m2 CLR
15:12 20.0 °F 7.7 °F 1022.2 in NNW 38.9 mph 38.9 mph 45 % 0.0 in 320.0 W/m2 CLR
15:16 20.0 °F 7.4 °F 1022.2 in North 31.5 mph 31.5 mph 44 % 0.0 in 313.0 W/m2 CLR
15:17 20.0 °F 7.4 °F 1022.2 in North 37.0 mph 37.0 mph 44 % 0.0 in 311.0 W/m2 CLR
15:18 20.0 °F 7.4 °F 1022.2 in North 31.5 mph 31.5 mph 44 % 0.0 in 309.0 W/m2 CLR
15:23 20.0 °F 7.4 °F 1021.9 in North 40.7 mph 40.7 mph 44 % 0.0 in 302.0 W/m2 CLR
15:25 20.0 °F 7.4 °F 1021.9 in NNW 35.2 mph 35.2 mph 44 % 0.0 in 297.0 W/m2 CLR
15:30 20.0 °F 7.4 °F 1021.9 in North 35.4 mph 35.4 mph 44 % 0.0 in 287.0 W/m2 CLR
15:32 20.0 °F 7.4 °F 1021.9 in NNW 35.2 mph 35.2 mph 44 % 0.0 in 285.0 W/m2 CLR
15:34 19.4 °F 6.9 °F 1021.9 in NNW 33.3 mph 33.3 mph 44 % 0.0 in 281.0 W/m2 CLR
15:39 19.4 °F 6.9 °F 1021.6 in North 42.6 mph 42.6 mph 44 % 0.0 in 271.0 W/m2 CLR
15:44 19.4 °F 6.9 °F 1021.6 in North 38.9 mph 38.9 mph 44 % 0.0 in 260.0 W/m2 CLR
15:48 19.4 °F 6.9 °F 1021.6 in NNW 33.3 mph 33.3 mph 44 % 0.0 in 251.0 W/m2 CLR
15:51 19.4 °F 6.9 °F 1021.6 in North 29.6 mph 29.6 mph 44 % 0.0 in 241.0 W/m2 CLR
15:56 19.4 °F 6.9 °F 1021.6 in NNW 38.9 mph 38.9 mph 44 % 0.0 in 229.0 W/m2 CLR
16:01 19.4 °F 6.9 °F 1021.6 in North 40.7 mph 40.7 mph 44 % 0.0 in 216.0 W/m2 CLR
16:06 18.9 °F 6.4 °F 1021.6 in NNW 35.2 mph 35.2 mph 44 % 0.0 in 206.0 W/m2 CLR
16:11 18.9 °F 6.7 °F 1021.6 in North 32.2 mph 32.2 mph 45 % 0.0 in 185.0 W/m2 CLR
16:12 18.9 °F 6.7 °F 1021.6 in NW 31.5 mph 31.5 mph 45 % 0.0 in 181.0 W/m2 CLR
16:15 18.9 °F 6.4 °F 1021.6 in NNW 33.3 mph 33.3 mph 44 % 0.0 in 176.0 W/m2 CLR
16:17 18.9 °F 6.4 °F 1021.6 in North 33.3 mph 33.3 mph 44 % 0.0 in 172.0 W/m2 CLR
16:22 18.9 °F 6.7 °F 1021.6 in NNW 27.8 mph 27.8 mph 45 % 0.0 in 153.0 W/m2 CLR
16:24 18.9 °F 6.7 °F 1021.6 in NNW 22.2 mph 22.2 mph 45 % 0.0 in 146.0 W/m2 CLR
16:29 18.9 °F 6.7 °F 1021.2 in NNW 18.5 mph 18.5 mph 45 % 0.0 in 139.0 W/m2 CLR
16:37 18.3 °F 6.2 °F 1021.6 in NNW 24.1 mph 24.1 mph 45 % 0.0 in 120.0 W/m2 CLR
16:39 18.3 °F 6.2 °F 1021.6 in NNW 18.5 mph 18.5 mph 45 % 0.0 in 114.0 W/m2 CLR
16:44 18.3 °F 6.2 °F 1021.2 in NNW 20.9 mph 20.9 mph 45 % 0.0 in 100.0 W/m2 CLR
16:48 18.3 °F 6.2 °F 1021.2 in NNW 29.6 mph 29.6 mph 45 % 0.0 in 93.0 W/m2 CLR
16:53 18.3 °F 6.2 °F 1021.2 in North 29.6 mph 29.6 mph 45 % 0.0 in 81.0 W/m2 FEW
16:56 18.3 °F 6.2 °F 1021.2 in NNW 22.2 mph 22.2 mph 45 % 0.0 in 67.0 W/m2 FEW
17:01 18.3 °F 6.5 °F 1021.2 in NW 20.4 mph 20.4 mph 46 % 0.0 in 54.0 W/m2 SCT
17:04 18.3 °F 6.5 °F 1021.2 in North 29.0 mph 29.0 mph 46 % 0.0 in 53.0 W/m2 SCT
17:09 17.8 °F 6.0 °F 1021.6 in NNW 25.9 mph 25.9 mph 46 % 0.0 in 44.0 W/m2 BKN
17:14 17.8 °F 6.3 °F 1021.2 in NNW 18.5 mph 18.5 mph 47 % 0.0 in 35.0 W/m2 BKN
17:19 17.8 °F 6.3 °F 1021.6 in NNW 24.1 mph 24.1 mph 47 % 0.0 in 25.0 W/m2 BKN
17:23 17.8 °F 6.6 °F 1021.6 in NNW 27.8 mph 27.8 mph 48 % 0.0 in 21.0 W/m2 BKN
17:24 17.8 °F 6.6 °F 1021.6 in NW 16.7 mph 16.7 mph 48 % 0.0 in 19.0 W/m2 BKN
17:27 17.2 °F 6.1 °F 1021.6 in NW 22.5 mph 22.5 mph 48 % 0.0 in 16.0 W/m2 BKN
17:30 17.2 °F 6.1 °F 1021.6 in NW 25.7 mph 25.7 mph 48 % 0.0 in 16.0 W/m2 BKN
17:32 17.2 °F 6.1 °F 1021.6 in NW 25.9 mph 25.9 mph 48 % 0.0 in 14.0 W/m2 BKN
17:35 17.2 °F 6.4 °F 1021.6 in NNW 24.1 mph 24.1 mph 49 % 0.0 in 11.0 W/m2 BKN
17:36 17.2 °F 6.4 °F 1021.6 in NW 27.8 mph 27.8 mph 49 % 0.0 in 11.0 W/m2 BKN
17:42 16.7 °F 5.9 °F 1021.6 in NW 29.6 mph 29.6 mph 49 % 0.0 in 7.0 W/m2 BKN
17:43 16.7 °F 5.9 °F 1021.6 in NW 22.2 mph 22.2 mph 49 % 0.0 in 7.0 W/m2 BKN
17:47 16.7 °F 6.2 °F 1021.6 in NW 18.5 mph 18.5 mph 50 % 0.0 in 5.0 W/m2 OVC
17:52 16.7 °F 6.2 °F 1021.9 in NW 20.9 mph 20.9 mph 50 % 0.0 in 5.0 W/m2 OVC
17:57 16.7 °F 6.2 °F 1021.6 in NW 22.2 mph 22.2 mph 50 % 0.0 in 0.0 W/m2 CLR
17:58 16.7 °F 6.2 °F 1021.6 in NW 24.1 mph 24.1 mph 50 % 0.0 in 0.0 W/m2 CLR
17:59 16.7 °F 6.2 °F 1021.6 in NNW 20.4 mph 20.4 mph 50 % 0.0 in 0.0 W/m2 CLR
18:04 16.1 °F 5.9 °F 1021.6 in NW 24.1 mph 24.1 mph 51 % 0.0 in 0.0 W/m2 CLR
18:05 16.1 °F 5.9 °F 1021.6 in NW 24.1 mph 24.1 mph 51 % 0.0 in 0.0 W/m2 CLR
18:10 16.1 °F 6.2 °F 1021.9 in WNW 27.8 mph 27.8 mph 52 % 0.0 in 0.0 W/m2 CLR
18:15 16.1 °F 6.2 °F 1021.9 in NW 22.5 mph 22.5 mph 52 % 0.0 in 0.0 W/m2 CLR
18:19 16.1 °F 6.2 °F 1021.9 in NW 22.2 mph 22.2 mph 52 % 0.0 in 0.0 W/m2 CLR
18:21 15.6 °F 5.7 °F 1021.9 in NW 18.5 mph 18.5 mph 52 % 0.0 in 0.0 W/m2 CLR
18:22 15.6 °F 5.7 °F 1021.9 in NW 18.5 mph 18.5 mph 52 % 0.0 in 0.0 W/m2 CLR
18:27 15.6 °F 6.0 °F 1021.9 in WNW 20.4 mph 20.4 mph 53 % 0.0 in 0.0 W/m2 CLR
18:30 15.6 °F 6.0 °F 1021.9 in WNW 16.7 mph 16.7 mph 53 % 0.0 in 0.0 W/m2 CLR
18:31 15.6 °F 6.0 °F 1021.9 in WNW 16.7 mph 16.7 mph 53 % 0.0 in 0.0 W/m2 CLR
18:32 15.6 °F 6.0 °F 1021.9 in WNW 16.7 mph 16.7 mph 53 % 0.0 in 0.0 W/m2 CLR
18:36 15.6 °F 6.0 °F 1021.9 in NW 22.2 mph 22.2 mph 53 % 0.0 in 0.0 W/m2 CLR
18:41 15.0 °F 5.5 °F 1021.9 in NW 18.5 mph 18.5 mph 53 % 0.0 in 0.0 W/m2 CLR
18:43 15.0 °F 5.8 °F 1021.9 in NW 27.8 mph 27.8 mph 54 % 0.0 in 0.0 W/m2 CLR
18:46 15.0 °F 5.8 °F 1022.2 in NW 20.4 mph 20.4 mph 54 % 0.0 in 0.0 W/m2 CLR
18:51 15.6 °F 6.3 °F 1022.2 in NW 20.4 mph 20.4 mph 54 % 0.0 in 0.0 W/m2 CLR
18:52 15.0 °F 5.8 °F 1022.2 in NW 22.2 mph 22.2 mph 54 % 0.0 in 0.0 W/m2 CLR
18:57 15.0 °F 6.0 °F 1022.2 in NW 20.4 mph 20.4 mph 55 % 0.0 in 0.0 W/m2 CLR
19:00 15.0 °F 6.0 °F 1022.2 in NNW 27.8 mph 27.8 mph 55 % 0.0 in 0.0 W/m2 CLR
19:05 15.0 °F 6.0 °F 1022.2 in NW 31.5 mph 31.5 mph 55 % 0.0 in 0.0 W/m2 CLR
19:10 15.0 °F 6.0 °F 1022.2 in NW 29.6 mph 29.6 mph 55 % 0.0 in 0.0 W/m2 CLR
19:11 15.0 °F 6.0 °F 1022.2 in WNW 29.6 mph 29.6 mph 55 % 0.0 in 0.0 W/m2 CLR
19:16 15.0 °F 6.0 °F 1022.2 in WNW 27.4 mph 27.4 mph 55 % 0.0 in 0.0 W/m2 CLR
19:21 15.0 °F 6.3 °F 1022.2 in NW 29.6 mph 29.6 mph 56 % 0.0 in 0.0 W/m2 CLR
19:24 15.0 °F 6.3 °F 1021.9 in WNW 33.3 mph 33.3 mph 56 % 0.0 in 0.0 W/m2 CLR
19:27 15.0 °F 6.3 °F 1021.9 in WNW 24.1 mph 24.1 mph 56 % 0.0 in 0.0 W/m2 CLR
19:29 15.0 °F 6.3 °F 1022.2 in NNW 22.5 mph 22.5 mph 56 % 0.0 in 0.0 W/m2 CLR
19:34 15.0 °F 6.6 °F 1021.9 in NW 25.9 mph 25.9 mph 57 % 0.0 in 0.0 W/m2 CLR
19:39 15.0 °F 6.6 °F 1022.2 in NW 24.1 mph 24.1 mph 57 % 0.0 in 0.0 W/m2 CLR
19:44 15.0 °F 6.6 °F 1022.2 in NW 31.5 mph 31.5 mph 57 % 0.0 in 0.0 W/m2 CLR
19:45 15.0 °F 6.6 °F 1022.2 in NW 27.8 mph 27.8 mph 57 % 0.0 in 0.0 W/m2 CLR
19:50 15.0 °F 6.8 °F 1021.9 in NW 31.5 mph 31.5 mph 58 % 0.0 in 0.0 W/m2 CLR
19:55 15.0 °F 6.8 °F 1021.9 in NW 29.6 mph 29.6 mph 58 % 0.0 in 0.0 W/m2 CLR
19:56 15.0 °F 6.8 °F 1021.9 in NW 29.6 mph 29.6 mph 58 % 0.0 in 0.0 W/m2 CLR
20:01 14.4 °F 6.3 °F 1021.9 in NW 25.9 mph 25.9 mph 58 % 0.0 in 0.0 W/m2 CLR
20:02 14.4 °F 6.3 °F 1021.9 in NW 29.6 mph 29.6 mph 58 % 0.0 in 0.0 W/m2 CLR
20:07 14.4 °F 6.3 °F 1021.9 in NW 24.1 mph 24.1 mph 58 % 0.0 in 0.0 W/m2 CLR
20:12 14.4 °F 6.3 °F 1021.9 in NW 31.5 mph 31.5 mph 58 % 0.0 in 0.0 W/m2 CLR
20:13 14.4 °F 6.3 °F 1021.9 in NW 29.6 mph 29.6 mph 58 % 0.0 in 0.0 W/m2 CLR
20:18 14.4 °F 6.3 °F 1021.9 in NW 27.8 mph 27.8 mph 58 % 0.0 in 0.0 W/m2 CLR
20:19 14.4 °F 6.3 °F 1021.9 in NW 27.8 mph 27.8 mph 58 % 0.0 in 0.0 W/m2 CLR
20:23 14.4 °F 6.3 °F 1021.9 in WNW 20.9 mph 20.9 mph 58 % 0.0 in 0.0 W/m2 CLR
20:27 14.4 °F 6.5 °F 1021.9 in NW 25.9 mph 25.9 mph 59 % 0.0 in 0.0 W/m2 CLR
20:30 14.4 °F 6.5 °F 1022.2 in NW 29.6 mph 29.6 mph 59 % 0.0 in 0.0 W/m2 CLR
20:33 13.9 °F 6.0 °F 1022.2 in NNW 31.5 mph 31.5 mph 59 % 0.0 in 0.0 W/m2 CLR
20:35 13.9 °F 6.0 °F 1022.2 in NNW 22.2 mph 22.2 mph 59 % 0.0 in 0.0 W/m2 CLR
20:40 14.4 °F 6.5 °F 1022.2 in NW 31.5 mph 31.5 mph 59 % 0.0 in 0.0 W/m2 CLR
20:41 14.4 °F 6.5 °F 1022.2 in NW 31.5 mph 31.5 mph 59 % 0.0 in 0.0 W/m2 CLR
20:44 14.4 °F 6.5 °F 1022.2 in NNW 20.4 mph 20.4 mph 59 % 0.0 in 0.0 W/m2 CLR
20:50 13.9 °F 6.0 °F 1022.2 in NNW 14.8 mph 14.8 mph 59 % 0.0 in 0.0 W/m2 CLR
20:55 13.9 °F 6.0 °F 1022.2 in West 14.8 mph 14.8 mph 59 % 0.0 in 0.0 W/m2 CLR
20:57 13.9 °F 6.0 °F 1022.2 in WNW 5.6 mph 5.6 mph 59 % 0.0 in 0.0 W/m2 CLR
21:02 13.9 °F 6.0 °F 1022.2 in WNW 13.0 mph 13.0 mph 59 % 0.0 in 0.0 W/m2 CLR
21:04 13.9 °F 6.0 °F 1022.2 in NW 13.0 mph 13.0 mph 59 % 0.0 in 0.0 W/m2 CLR
21:09 13.9 °F 6.0 °F 1022.2 in West 3.7 mph 3.7 mph 59 % 0.0 in 0.0 W/m2 CLR
21:11 13.9 °F 6.0 °F 1022.2 in Calm     59 % 0.0 in 0.0 W/m2 CLR
21:14 13.3 °F 5.5 °F 1022.2 in Calm     59 % 0.0 in 0.0 W/m2 CLR
21:16 13.3 °F 5.7 °F 1022.2 in West 11.1 mph 11.1 mph 60 % 0.0 in 0.0 W/m2 CLR
21:19 13.3 °F 5.7 °F 1022.2 in West 14.8 mph 14.8 mph 60 % 0.0 in 0.0 W/m2 CLR
21:20 13.3 °F 5.7 °F 1022.2 in WNW 14.8 mph 14.8 mph 60 % 0.0 in 0.0 W/m2 CLR
21:25 13.3 °F 5.7 °F 1022.2 in NW 16.7 mph 16.7 mph 60 % 0.0 in 0.0 W/m2 CLR
21:30 13.3 °F 5.7 °F 1022.2 in WNW 20.4 mph 20.4 mph 60 % 0.0 in 0.0 W/m2 CLR
21:33 13.3 °F 5.7 °F 1022.2 in WNW 14.8 mph 14.8 mph 60 % 0.0 in 0.0 W/m2 CLR
21:35 13.3 °F 5.7 °F 1022.2 in West 14.8 mph 14.8 mph 60 % 0.0 in 0.0 W/m2 CLR
21:37 13.3 °F 5.7 °F 1022.2 in WNW 11.1 mph 11.1 mph 60 % 0.0 in 0.0 W/m2 CLR
21:41 13.3 °F 5.7 °F 1022.2 in NW 14.8 mph 14.8 mph 60 % 0.0 in 0.0 W/m2 CLR
21:44 12.8 °F 5.2 °F 1022.2 in Calm     60 % 0.0 in 0.0 W/m2 CLR
21:49 12.2 °F 4.9 °F 1022.2 in Calm     61 % 0.0 in 0.0 W/m2 CLR
21:51 12.2 °F 4.9 °F 1021.9 in Calm   0.3 mph 61 % 0.0 in 0.0 W/m2 CLR
21:54 11.7 °F 4.4 °F 1021.9 in WNW 8.0 mph 8.0 mph 61 % 0.0 in 0.0 W/m2 CLR
22:02 11.7 °F 4.4 °F 1021.9 in WNW 20.4 mph 20.4 mph 61 % 0.0 in 0.0 W/m2 CLR
22:09 12.2 °F 4.7 °F 1021.9 in WNW 25.9 mph 25.9 mph 60 % 0.0 in 0.0 W/m2 CLR
22:11 12.2 °F 4.7 °F 1021.9 in WNW 18.5 mph 18.5 mph 60 % 0.0 in 0.0 W/m2 CLR
22:13 12.2 °F 4.7 °F 1021.9 in West 16.7 mph 16.7 mph 60 % 0.0 in 0.0 W/m2 CLR
22:14 12.2 °F 4.7 °F 1021.6 in West 14.8 mph 14.8 mph 60 % 0.0 in 0.0 W/m2 CLR
22:19 12.2 °F 4.7 °F 1021.9 in NW 14.8 mph 14.8 mph 60 % 0.0 in 0.0 W/m2 CLR
22:22 12.2 °F 4.7 °F 1021.6 in NW 22.5 mph 22.5 mph 60 % 0.0 in 0.0 W/m2 CLR
22:25 12.2 °F 4.7 °F 1021.6 in West 18.5 mph 18.5 mph 60 % 0.0 in 0.0 W/m2 CLR
22:32 12.2 °F 4.7 °F 1021.6 in West 16.7 mph 16.7 mph 60 % 0.0 in 0.0 W/m2 CLR
22:33 12.2 °F 4.7 °F 1021.6 in West 16.7 mph 16.7 mph 60 % 0.0 in 0.0 W/m2 CLR
22:42 11.7 °F 4.2 °F 1021.6 in WNW 14.8 mph 14.8 mph 60 % 0.0 in 0.0 W/m2 CLR
22:43 11.7 °F 4.2 °F 1021.6 in WNW 14.8 mph 14.8 mph 60 % 0.0 in 0.0 W/m2 CLR
22:44 11.7 °F 4.2 °F 1021.6 in WNW 14.8 mph 14.8 mph 60 % 0.0 in 0.0 W/m2 CLR
22:46 11.7 °F 4.2 °F 1021.2 in West 14.8 mph 14.8 mph 60 % 0.0 in 0.0 W/m2 CLR
22:47 11.7 °F 4.2 °F 1021.2 in West 14.8 mph 14.8 mph 60 % 0.0 in 0.0 W/m2 CLR
22:48 11.1 °F 3.6 °F 1021.2 in West 11.1 mph 11.1 mph 60 % 0.0 in 0.0 W/m2 CLR
22:49 11.1 °F 3.9 °F 1021.2 in NW 11.3 mph 11.3 mph 61 % 0.0 in 0.0 W/m2 CLR
22:50 11.7 °F 4.4 °F 1021.2 in WNW 14.8 mph 14.8 mph 61 % 0.0 in 0.0 W/m2 CLR
22:53 11.7 °F 4.4 °F 1021.2 in West 18.5 mph 18.5 mph 61 % 0.0 in 0.0 W/m2 CLR
22:55 11.7 °F 4.4 °F 1021.2 in West 14.8 mph 14.8 mph 61 % 0.0 in 0.0 W/m2 CLR
22:58 12.2 °F 4.9 °F 1021.2 in WNW 18.5 mph 18.5 mph 61 % 0.0 in 0.0 W/m2 CLR
23:03 12.2 °F 4.9 °F 1021.2 in Calm     61 % 0.0 in 0.0 W/m2 CLR
23:04 12.2 °F 4.9 °F 1021.2 in Calm     61 % 0.0 in 0.0 W/m2 CLR
23:09 12.2 °F 5.2 °F 1021.2 in West 1.9 mph 1.9 mph 62 % 0.0 in 0.0 W/m2 CLR
23:12 12.2 °F 5.2 °F 1021.2 in WSW 5.6 mph 5.6 mph 62 % 0.0 in 0.0 W/m2 CLR
23:21 12.8 °F 5.9 °F 1021.2 in West 9.3 mph 9.3 mph 63 % 0.0 in 0.0 W/m2 CLR
23:26 12.8 °F 5.9 °F 1021.2 in West 16.1 mph 16.1 mph 63 % 0.0 in 0.0 W/m2 CLR
23:31 12.2 °F 5.6 °F 1021.2 in West 16.7 mph 16.7 mph 64 % 0.0 in 0.0 W/m2 CLR
23:34 12.2 °F 5.6 °F 1021.2 in WSW 16.7 mph 16.7 mph 64 % 0.0 in 0.0 W/m2 CLR
23:36 12.2 °F 5.6 °F 1020.9 in WNW 18.5 mph 18.5 mph 64 % 0.0 in 0.0 W/m2 CLR
23:41 12.2 °F 5.6 °F 1020.9 in WNW 18.5 mph 18.5 mph 64 % 0.0 in 0.0 W/m2 CLR
23:43 11.7 °F 5.1 °F 1020.9 in WNW 18.5 mph 18.5 mph 64 % 0.0 in 0.0 W/m2 CLR
23:48 11.7 °F 5.1 °F 1020.9 in WNW 20.4 mph 20.4 mph 64 % 0.0 in 0.0 W/m2 CLR
23:50 11.7 °F 5.1 °F 1020.9 in WNW 22.2 mph 22.2 mph 64 % 0.0 in 0.0 W/m2 CLR
23:56 11.7 °F 4.8 °F 1020.9 in WNW 22.5 mph 22.5 mph 63 % 0.0 in 0.0 W/m2 CLR
23:57 11.7 °F 4.8 °F 1020.9 in West 25.7 mph 25.7 mph 63 % 0.0 in 0.0 W/m2 CLR
Lo Temps de Massalio
Compliments of Weather Underground - 1.5 mb